Time;durP1;ratioP1;P1;durP2;ratioP2;P2;SDS_P1;SDS_P2;PMS_P1;PMS_P2;Temp;Humidity;BMP_temperature;BMP_pressure;BME280_temperature;BME280_humidity;BME280_pressure;Samples;Min_cycle;Max_cycle;Signal;HPM_P1;HPM_P2
2023/08/13 00:01:17;;;;;;;13.83;7.07;;;22.40;85.20;;;;;;5021235;28;20460;-79
2023/08/13 00:03:45;;;;;;;12.73;6.77;;;22.40;85.20;;;;;;5026793;28;20525;-78
2023/08/13 00:06:14;;;;;;;13.13;5.40;;;22.30;85.10;;;;;;5025758;28;20451;-79
2023/08/13 00:08:43;;;;;;;11.97;6.50;;;22.30;85.20;;;;;;5029754;28;20451;-78
2023/08/13 00:11:12;;;;;;;10.77;6.40;;;22.30;85.10;;;;;;5029227;28;20451;-78
2023/08/13 00:13:40;;;;;;;9.40;6.03;;;22.30;85.20;;;;;;5020179;28;20460;-79
2023/08/13 00:16:08;;;;;;;10.63;5.97;;;22.30;85.20;;;;;;5022646;28;20853;-79
2023/08/13 00:18:37;;;;;;;11.03;5.83;;;22.30;85.30;;;;;;5029439;28;20462;-78
2023/08/13 00:21:05;;;;;;;9.17;5.53;;;22.30;85.30;;;;;;5025130;28;20463;-78
2023/08/13 00:23:33;;;;;;;8.63;5.73;;;22.30;85.20;;;;;;5026683;28;20463;-78
2023/08/13 00:26:02;;;;;;;9.67;5.47;;;22.30;85.20;;;;;;5027771;28;20530;-78
2023/08/13 00:28:31;;;;;;;10.03;6.37;;;22.30;85.20;;;;;;5026371;28;20538;-79
2023/08/13 00:31:00;;;;;;;9.60;5.87;;;22.30;85.20;;;;;;5027950;28;20490;-78
2023/08/13 00:33:46;;;;;;;8.87;5.50;;;22.20;85.10;;;;;;5023828;28;20542;-79
2023/08/13 00:36:15;;;;;;;9.47;5.47;;;22.20;85.00;;;;;;5020880;28;20525;-78
2023/08/13 00:38:43;;;;;;;11.03;5.60;;;22.20;84.90;;;;;;5026122;28;20451;-79
2023/08/13 00:41:12;;;;;;;17.23;6.33;;;22.20;84.90;;;;;;5019646;28;20511;-78
2023/08/13 00:43:41;;;;;;;8.63;6.00;;;22.10;84.80;;;;;;5028488;28;20462;-78
2023/08/13 00:46:09;;;;;;;10.27;5.43;;;22.10;84.80;;;;;;5023576;28;20478;-79
2023/08/13 00:48:40;;;;;;;8.50;5.37;;;22.10;84.80;;;;;;5027705;28;20513;-78
2023/08/13 00:51:12;;;;;;;9.00;5.00;;;22.10;84.70;;;;;;5023932;28;20830;-78
2023/08/13 00:53:45;;;;;;;8.13;5.73;;;22.00;84.70;;;;;;5024145;28;20873;-79
2023/08/13 00:56:16;;;;;;;11.53;6.13;;;22.00;84.70;;;;;;5027416;28;20598;-78
2023/08/13 00:58:45;;;;;;;9.50;5.70;;;21.90;84.60;;;;;;5026395;28;20562;-79
2023/08/13 01:01:13;;;;;;;8.47;5.53;;;21.90;84.60;;;;;;5019296;28;20461;-79
2023/08/13 01:03:41;;;;;;;7.27;5.27;;;21.90;84.60;;;;;;5026351;28;20795;-79
2023/08/13 01:06:15;;;;;;;10.03;6.40;;;21.80;84.50;;;;;;5021649;28;20551;-79
2023/08/13 01:08:56;;;;;;;11.23;6.00;;;21.80;84.50;;;;;;5024316;28;20448;-79
2023/08/13 01:11:33;;;;;;;6.80;5.00;;;21.80;84.50;;;;;;5040296;28;20456;-79
2023/08/13 01:14:07;;;;;;;10.00;5.77;;;21.80;84.50;;;;;;5025982;28;20555;-79
2023/08/13 01:16:37;;;;;;;8.90;5.27;;;21.80;84.40;;;;;;5027846;28;20538;-79
2023/08/13 01:19:09;;;;;;;9.90;5.30;;;21.70;84.40;;;;;;5041001;28;20459;-79
2023/08/13 01:21:36;;;;;;;13.77;5.90;;;21.70;84.30;;;;;;5023165;28;21050;-79
2023/08/13 01:24:07;;;;;;;8.67;5.30;;;21.70;84.30;;;;;;5023245;28;20534;-79
2023/08/13 01:26:41;;;;;;;14.00;5.77;;;21.60;84.30;;;;;;5024851;28;20472;-78
2023/08/13 01:29:16;;;;;;;9.27;5.43;;;21.60;84.40;;;;;;5024487;28;20871;-79
2023/08/13 01:31:49;;;;;;;8.40;5.50;;;21.60;84.40;;;;;;5022466;28;20456;-79
2023/08/13 01:34:18;;;;;;;8.63;5.40;;;21.60;84.40;;;;;;5020854;28;20561;-79
2023/08/13 01:36:47;;;;;;;8.77;4.73;;;21.50;84.30;;;;;;5020443;28;20466;-79
2023/08/13 01:39:16;;;;;;;12.53;5.13;;;21.40;84.20;;;;;;5018191;28;20479;-79
2023/08/13 01:41:54;;;;;;;13.20;5.47;;;21.40;84.10;;;;;;5014891;28;20465;-79
2023/08/13 01:44:22;;;;;;;18.83;5.37;;;21.30;84.20;;;;;;5045605;28;20456;-78
2023/08/13 01:46:50;;;;;;;14.23;5.60;;;21.30;84.30;;;;;;5024906;28;20465;-78
2023/08/13 01:49:19;;;;;;;8.77;5.80;;;21.30;84.30;;;;;;5020400;28;20551;-79
2023/08/13 01:51:48;;;;;;;9.20;5.93;;;21.30;84.30;;;;;;5023858;28;20459;-78
2023/08/13 01:54:17;;;;;;;13.50;6.70;;;21.20;84.30;;;;;;5021133;28;20443;-78
2023/08/13 01:56:45;;;;;;;10.10;5.70;;;21.20;84.20;;;;;;5053243;28;20902;-78
2023/08/13 01:59:13;;;;;;;10.70;5.50;;;21.20;84.10;;;;;;5027587;28;20459;-78
2023/08/13 02:01:41;;;;;;;16.83;5.37;;;21.10;84.20;;;;;;5027923;28;20452;-78
2023/08/13 02:04:09;;;;;;;14.03;5.20;;;21.10;84.40;;;;;;5024801;28;20958;-79
2023/08/13 02:06:37;;;;;;;12.17;6.03;;;21.10;84.40;;;;;;5019383;28;20514;-79
2023/08/13 02:09:06;;;;;;;8.97;5.87;;;21.10;84.40;;;;;;5022677;28;20519;-79
2023/08/13 02:11:35;;;;;;;9.80;5.03;;;21.10;84.40;;;;;;5047709;28;20467;-80
2023/08/13 02:14:03;;;;;;;9.93;5.70;;;21.10;84.30;;;;;;5022215;28;20456;-80
2023/08/13 02:16:31;;;;;;;11.90;5.50;;;21.10;84.30;;;;;;5020319;28;20447;-80
2023/08/13 02:19:00;;;;;;;13.57;5.93;;;21.00;84.20;;;;;;5019594;28;20477;-78
2023/08/13 02:21:31;;;;;;;10.27;5.63;;;21.00;84.30;;;;;;5020998;28;20546;-79
2023/08/13 02:23:59;;;;;;;9.37;5.67;;;21.00;84.30;;;;;;5022802;28;20456;-78
2023/08/13 02:26:34;;;;;;;10.17;5.60;;;21.00;84.30;;;;;;5031247;28;20451;-79
2023/08/13 02:29:04;;;;;;;10.03;5.50;;;20.90;84.40;;;;;;5013473;28;20480;-79
2023/08/13 02:31:33;;;;;;;8.33;5.40;;;20.90;84.30;;;;;;5024337;28;20912;-80
2023/08/13 02:34:01;;;;;;;13.90;5.50;;;20.90;84.40;;;;;;5023769;28;20550;-80
2023/08/13 02:36:29;;;;;;;11.00;6.13;;;20.90;84.50;;;;;;5031689;28;20472;-79
2023/08/13 02:38:57;;;;;;;8.60;5.40;;;20.90;84.40;;;;;;5038284;28;20468;-78
2023/08/13 02:41:25;;;;;;;10.40;5.10;;;20.90;84.40;;;;;;5017808;28;20469;-80
2023/08/13 02:44:00;;;;;;;9.37;6.07;;;20.90;84.40;;;;;;5027666;28;22287;-79
2023/08/13 02:46:28;;;;;;;8.53;5.70;;;20.90;84.40;;;;;;5024741;28;20459;-79
2023/08/13 02:48:57;;;;;;;11.73;6.50;;;20.80;84.40;;;;;;5019658;28;20483;-79
2023/08/13 02:51:27;;;;;;;12.30;5.77;;;20.80;84.50;;;;;;5023970;28;20511;-79
2023/08/13 02:53:55;;;;;;;11.60;6.17;;;20.80;84.60;;;;;;5025743;28;20459;-79
2023/08/13 02:56:23;;;;;;;11.13;5.93;;;20.80;84.60;;;;;;5029019;28;20857;-79
2023/08/13 02:58:51;;;;;;;11.00;6.53;;;20.80;84.60;;;;;;5057119;28;21021;-79
2023/08/13 03:01:20;;;;;;;16.70;6.77;;;20.80;84.70;;;;;;5027905;28;20509;-79
2023/08/13 03:03:52;;;;;;;13.03;5.67;;;20.80;84.80;;;;;;5027451;28;20482;-79
2023/08/13 03:06:21;;;;;;;9.47;5.30;;;20.80;84.80;;;;;;5030547;28;20497;-79
2023/08/13 03:08:49;;;;;;;10.43;5.87;;;20.90;84.80;;;;;;5030043;28;20839;-80
2023/08/13 03:11:17;;;;;;;12.47;5.80;;;20.90;84.80;;;;;;5058454;28;20537;-80
2023/08/13 03:13:46;;;;;;;12.00;6.03;;;20.90;84.70;;;;;;5058062;28;20885;-79
2023/08/13 03:16:15;;;;;;;13.10;5.73;;;21.00;84.70;;;;;;5023998;28;20459;-79
2023/08/13 03:18:45;;;;;;;12.90;5.50;;;21.00;84.70;;;;;;5053108;28;20463;-78
2023/08/13 03:21:17;;;;;;;8.70;5.17;;;21.00;84.80;;;;;;5025521;28;20456;-79
2023/08/13 03:23:46;;;;;;;8.87;4.90;;;21.00;84.70;;;;;;5026361;28;20482;-78
2023/08/13 03:26:14;;;;;;;13.40;5.77;;;21.00;84.70;;;;;;5028589;28;20456;-79
2023/08/13 03:28:43;;;;;;;10.13;5.77;;;21.00;84.70;;;;;;5024816;28;20617;-78
2023/08/13 03:31:15;;;;;;;7.77;4.80;;;21.10;84.70;;;;;;5033727;28;20534;-78
2023/08/13 03:33:49;;;;;;;12.80;5.53;;;21.10;84.60;;;;;;5023964;28;20543;-79
2023/08/13 03:36:17;;;;;;;9.30;5.90;;;21.10;84.70;;;;;;5036327;28;20535;-80
2023/08/13 03:38:47;;;;;;;10.23;5.50;;;21.10;84.60;;;;;;5034005;28;20481;-79
2023/08/13 03:41:16;;;;;;;12.87;5.10;;;21.10;84.60;;;;;;5028159;28;20483;-78
2023/08/13 03:43:44;;;;;;;10.43;5.37;;;21.10;84.60;;;;;;5025481;28;20517;-79
2023/08/13 03:46:12;;;;;;;10.73;5.07;;;21.00;84.60;;;;;;5027210;28;20842;-79
2023/08/13 03:48:41;;;;;;;9.33;5.50;;;21.00;84.50;;;;;;5021386;28;20829;-78
2023/08/13 03:51:10;;;;;;;10.43;5.33;;;21.00;84.60;;;;;;5027365;28;20462;-79
2023/08/13 03:53:39;;;;;;;8.07;5.00;;;21.00;84.50;;;;;;5025160;28;20462;-79
2023/08/13 03:56:07;;;;;;;10.50;5.70;;;21.00;84.50;;;;;;5039760;28;20464;-78
2023/08/13 03:58:37;;;;;;;10.80;5.87;;;21.00;84.50;;;;;;5023180;28;20521;-79
2023/08/13 04:01:08;;;;;;;9.33;5.37;;;21.00;84.40;;;;;;5022570;28;20969;-78
2023/08/13 04:03:40;;;;;;;13.73;5.60;;;21.00;84.50;;;;;;5025453;28;21098;-79
2023/08/13 04:06:10;;;;;;;14.63;5.70;;;21.00;84.50;;;;;;5027173;28;20459;-79
2023/08/13 04:08:38;;;;;;;9.50;5.90;;;21.00;84.50;;;;;;5028501;28;20551;-79
2023/08/13 04:11:09;;;;;;;12.40;5.77;;;21.00;84.50;;;;;;5054079;28;21573;-78
2023/08/13 04:13:38;;;;;;;8.83;5.60;;;21.00;84.50;;;;;;5027639;28;20554;-79
2023/08/13 04:16:06;;;;;;;11.23;6.00;;;21.00;84.50;;;;;;5019170;28;20472;-78
2023/08/13 04:18:35;;;;;;;12.87;5.93;;;21.00;84.50;;;;;;5024680;28;20475;-78
2023/08/13 04:21:03;;;;;;;9.73;5.30;;;20.90;84.50;;;;;;5028925;28;20460;-79
2023/08/13 04:23:33;;;;;;;10.80;6.00;;;21.00;84.60;;;;;;5029025;28;20535;-78
2023/08/13 04:26:01;;;;;;;13.23;6.37;;;21.00;84.60;;;;;;5023051;28;20471;-78
2023/08/13 04:28:38;;;;;;;11.70;6.10;;;21.00;84.50;;;;;;5054817;28;20492;-79
2023/08/13 04:31:06;;;;;;;6.80;5.10;;;21.00;84.50;;;;;;5022361;28;20552;-78
2023/08/13 04:33:37;;;;;;;11.70;6.07;;;20.90;84.60;;;;;;5021777;28;20459;-78
2023/08/13 04:36:06;;;;;;;8.23;5.37;;;20.90;84.60;;;;;;5027540;28;20455;-79
2023/08/13 04:38:35;;;;;;;13.40;5.30;;;21.00;84.70;;;;;;5029627;28;20475;-79
2023/08/13 04:41:05;;;;;;;9.30;5.50;;;21.00;84.70;;;;;;5027052;28;21069;-79
2023/08/13 04:43:39;;;;;;;8.77;5.70;;;21.00;84.70;;;;;;5028546;28;20533;-79
2023/08/13 04:46:08;;;;;;;9.03;5.57;;;21.00;84.60;;;;;;5024489;28;20458;-79
2023/08/13 04:48:42;;;;;;;9.57;5.30;;;21.00;84.60;;;;;;5024899;28;20451;-79
2023/08/13 04:51:16;;;;;;;9.47;5.20;;;21.00;84.50;;;;;;5017705;28;20985;-79
2023/08/13 04:53:46;;;;;;;9.83;5.80;;;21.00;84.50;;;;;;5026184;28;20518;-78
2023/08/13 04:56:14;;;;;;;9.07;5.67;;;21.00;84.60;;;;;;5025222;28;20491;-78
2023/08/13 04:58:43;;;;;;;8.83;5.63;;;21.00;84.60;;;;;;5023835;28;20856;-79
2023/08/13 05:01:12;;;;;;;12.97;5.67;;;21.00;84.60;;;;;;5018663;28;20459;-78
2023/08/13 05:03:44;;;;;;;10.80;6.23;;;21.00;84.60;;;;;;5019358;28;20475;-79
2023/08/13 05:06:13;;;;;;;8.40;5.63;;;21.00;84.60;;;;;;5047444;28;20461;-79
2023/08/13 05:08:41;;;;;;;9.93;5.70;;;21.00;84.60;;;;;;5020711;28;20455;-79
2023/08/13 05:11:11;;;;;;;11.70;6.67;;;21.00;84.50;;;;;;5050389;28;20452;-79
2023/08/13 05:13:39;;;;;;;9.53;6.03;;;21.00;84.60;;;;;;5020161;28;20658;-79
2023/08/13 05:16:08;;;;;;;12.00;6.13;;;21.00;84.70;;;;;;5019113;28;20464;-79
2023/08/13 05:18:37;;;;;;;9.97;6.90;;;21.10;84.80;;;;;;5010740;28;20455;-78
2023/08/13 05:21:06;;;;;;;11.20;6.40;;;21.10;84.80;;;;;;5049344;28;20464;-79
2023/08/13 05:23:34;;;;;;;12.23;7.00;;;21.10;84.80;;;;;;5060122;28;20455;-78
2023/08/13 05:26:03;;;;;;;11.00;6.90;;;21.20;85.00;;;;;;5027563;28;20459;-79
2023/08/13 05:28:34;;;;;;;10.03;7.00;;;21.30;85.00;;;;;;5060612;28;20510;-79
2023/08/13 05:31:03;;;;;;;8.93;6.80;;;21.30;85.00;;;;;;5022493;28;20506;-80
2023/08/13 05:33:41;;;;;;;9.47;6.87;;;21.30;85.00;;;;;;5027876;28;20934;-78
2023/08/13 05:36:09;;;;;;;9.90;6.93;;;21.40;85.10;;;;;;5025913;28;20541;-80
2023/08/13 05:38:37;;;;;;;10.47;6.70;;;21.40;85.20;;;;;;5026523;28;20466;-78
2023/08/13 05:41:09;;;;;;;9.10;7.10;;;21.50;85.20;;;;;;5025397;28;20450;-78
2023/08/13 05:43:39;;;;;;;10.60;6.90;;;21.60;85.30;;;;;;5019191;28;20550;-79
2023/08/13 05:46:07;;;;;;;12.93;7.67;;;21.60;85.30;;;;;;5020973;28;20502;-79
2023/08/13 05:48:37;;;;;;;10.83;7.07;;;21.60;85.20;;;;;;5023475;28;20822;-78
2023/08/13 05:51:05;;;;;;;10.53;6.70;;;21.60;85.20;;;;;;5019526;28;20799;-79
2023/08/13 05:53:33;;;;;;;9.20;6.80;;;21.70;85.20;;;;;;5019715;28;20460;-78
2023/08/13 05:56:01;;;;;;;8.60;6.13;;;21.70;85.30;;;;;;5050156;28;20447;-78
2023/08/13 05:58:29;;;;;;;8.80;6.57;;;21.70;85.40;;;;;;5021493;28;20451;-78
2023/08/13 06:00:59;;;;;;;9.03;5.73;;;21.70;85.40;;;;;;5024444;28;20582;-78
2023/08/13 06:03:28;;;;;;;7.07;5.40;;;21.80;85.50;;;;;;5026039;28;20439;-78
2023/08/13 06:05:56;;;;;;;8.80;5.40;;;21.80;85.50;;;;;;5028917;28;20451;-80
2023/08/13 06:08:24;;;;;;;8.77;5.00;;;21.80;85.50;;;;;;5024565;28;20483;-80
2023/08/13 06:10:52;;;;;;;8.67;4.60;;;21.90;85.60;;;;;;5018617;28;20887;-77
2023/08/13 06:13:20;;;;;;;8.70;4.77;;;21.90;85.60;;;;;;5022917;28;20463;-78
2023/08/13 06:15:48;;;;;;;7.80;5.00;;;21.90;85.60;;;;;;5026206;28;20463;-77
2023/08/13 06:18:21;;;;;;;7.87;4.60;;;22.00;85.70;;;;;;5024175;28;20554;-78
2023/08/13 06:20:49;;;;;;;8.73;4.70;;;22.00;85.70;;;;;;5023254;28;20474;-79
2023/08/13 06:23:17;;;;;;;6.40;4.20;;;22.00;85.70;;;;;;5024188;28;20495;-78
2023/08/13 06:25:45;;;;;;;6.43;4.57;;;22.10;85.80;;;;;;5016761;28;20462;-79
2023/08/13 06:28:15;;;;;;;7.00;4.43;;;22.10;85.70;;;;;;5021838;28;20463;-79
2023/08/13 06:30:44;;;;;;;6.53;4.03;;;22.10;85.70;;;;;;5025065;28;20505;-79
2023/08/13 06:33:12;;;;;;;11.40;5.23;;;22.20;85.70;;;;;;5052193;28;20457;-78
2023/08/13 06:35:45;;;;;;;9.57;4.90;;;22.20;85.80;;;;;;5025575;28;20462;-79
2023/08/13 06:38:13;;;;;;;7.17;5.00;;;22.20;85.80;;;;;;5021612;28;20979;-79
2023/08/13 06:40:41;;;;;;;9.50;5.67;;;22.20;85.80;;;;;;5051760;28;20578;-78
2023/08/13 06:43:09;;;;;;;10.40;5.17;;;22.30;85.80;;;;;;5025941;28;20566;-80
2023/08/13 06:45:37;;;;;;;7.20;5.40;;;22.30;85.80;;;;;;5023890;28;20551;-77
2023/08/13 06:48:07;;;;;;;8.97;6.27;;;22.30;85.80;;;;;;5026794;28;20455;-79
2023/08/13 06:50:35;;;;;;;9.70;6.60;;;22.30;85.70;;;;;;5026902;28;20478;-79
2023/08/13 06:53:04;;;;;;;9.60;6.70;;;22.40;85.70;;;;;;5024948;28;20460;-79
2023/08/13 06:55:32;;;;;;;12.13;7.63;;;22.40;85.80;;;;;;5021355;28;20470;-79
2023/08/13 06:58:00;;;;;;;12.03;6.80;;;22.40;85.70;;;;;;5021758;28;20509;-78
2023/08/13 07:00:28;;;;;;;13.17;8.63;;;22.50;85.70;;;;;;5019800;28;20973;-78
2023/08/13 07:03:07;;;;;;;11.33;7.70;;;22.50;85.70;;;;;;5020130;28;20463;-78
2023/08/13 07:05:35;;;;;;;11.90;8.10;;;22.50;85.70;;;;;;5024238;28;20470;-79
2023/08/13 07:08:12;;;;;;;12.33;8.57;;;22.60;85.80;;;;;;5023598;28;20543;-79
2023/08/13 07:10:41;;;;;;;11.23;7.27;;;22.60;85.70;;;;;;5025946;28;20467;-80
2023/08/13 07:13:13;;;;;;;11.20;8.13;;;22.60;85.80;;;;;;5048844;28;20523;-78
2023/08/13 07:15:41;;;;;;;11.17;8.23;;;22.70;85.90;;;;;;5024095;28;21036;-79
2023/08/13 07:18:09;;;;;;;11.03;7.80;;;22.70;85.90;;;;;;5026814;28;20471;-78
2023/08/13 07:20:37;;;;;;;12.27;8.10;;;22.80;85.70;;;;;;5023830;28;20490;-79
2023/08/13 07:23:06;;;;;;;13.80;8.67;;;22.90;85.60;;;;;;5024404;28;20480;-78
2023/08/13 07:25:36;;;;;;;11.90;7.80;;;22.90;85.50;;;;;;5018659;28;21073;-78
2023/08/13 07:28:06;;;;;;;13.40;9.17;;;23.00;85.40;;;;;;5023495;28;20550;-78
2023/08/13 07:30:34;;;;;;;12.80;10.00;;;23.00;85.40;;;;;;5025978;28;20501;-79
2023/08/13 07:33:02;;;;;;;14.27;10.30;;;23.00;85.30;;;;;;5051733;28;20519;-78
2023/08/13 07:35:30;;;;;;;14.53;11.00;;;23.10;85.40;;;;;;5021871;28;20456;-79
2023/08/13 07:37:59;;;;;;;19.57;11.67;;;23.10;85.40;;;;;;5023216;28;20464;-80
2023/08/13 07:40:27;;;;;;;16.60;10.60;;;23.10;85.30;;;;;;5025968;28;20589;-79
2023/08/13 07:43:00;;;;;;;19.57;10.20;;;23.20;85.30;;;;;;5026401;28;20470;-78
2023/08/13 07:45:29;;;;;;;16.43;10.30;;;23.20;85.20;;;;;;5023669;28;21186;-78
2023/08/13 07:47:58;;;;;;;13.07;9.20;;;23.30;85.20;;;;;;5023513;28;20463;-79
2023/08/13 07:50:26;;;;;;;17.70;10.47;;;23.30;85.20;;;;;;5022748;28;20462;-78
2023/08/13 07:52:54;;;;;;;16.50;10.43;;;23.30;85.10;;;;;;5019179;28;20506;-79
2023/08/13 07:55:22;;;;;;;16.57;10.17;;;23.30;85.20;;;;;;5026431;28;20460;-79
2023/08/13 07:57:50;;;;;;;15.10;9.80;;;23.40;85.20;;;;;;5026765;28;20462;-80
2023/08/13 08:00:20;;;;;;;16.90;9.93;;;23.40;85.20;;;;;;5033391;28;20479;-81
2023/08/13 08:02:48;;;;;;;15.63;9.40;;;23.50;85.10;;;;;;5059552;28;20559;-81
2023/08/13 08:05:26;;;;;;;16.90;9.17;;;23.50;85.10;;;;;;5043362;28;20835;-81
2023/08/13 08:07:55;;;;;;;19.47;10.83;;;23.60;85.00;;;;;;5015596;28;20562;-81
2023/08/13 08:10:23;;;;;;;16.10;9.60;;;23.60;85.00;;;;;;5042691;28;20464;-82
2023/08/13 08:12:51;;;;;;;13.20;9.10;;;23.70;84.90;;;;;;5019891;28;20455;-82
2023/08/13 08:15:21;;;;;;;13.97;9.20;;;23.70;84.80;;;;;;5038246;28;20490;-81
2023/08/13 08:17:49;;;;;;;17.23;10.13;;;23.80;84.80;;;;;;5019396;28;20464;-83
2023/08/13 08:20:17;;;;;;;11.57;8.37;;;23.80;84.70;;;;;;5034275;28;20526;-81
2023/08/13 08:22:46;;;;;;;17.47;8.73;;;23.80;84.60;;;;;;5024817;28;21067;-81
2023/08/13 08:25:20;;;;;;;11.30;8.07;;;23.90;84.50;;;;;;5030886;28;20467;-84
2023/08/13 08:27:48;;;;;;;12.83;8.70;;;23.90;84.30;;;;;;5027286;28;20455;-80
2023/08/13 08:30:16;;;;;;;12.37;8.63;;;23.90;84.20;;;;;;5020464;28;20491;-81
2023/08/13 08:32:46;;;;;;;9.93;7.23;;;23.90;84.10;;;;;;5024710;28;20463;-81
2023/08/13 08:35:15;;;;;;;11.80;7.70;;;23.90;84.00;;;;;;5026009;28;20512;-81
2023/08/13 08:37:43;;;;;;;12.73;8.00;;;23.90;83.90;;;;;;5025385;28;20459;-81
2023/08/13 08:40:11;;;;;;;11.83;8.37;;;23.90;83.80;;;;;;5034951;28;20479;-82
2023/08/13 08:42:42;;;;;;;13.43;8.83;;;24.00;83.70;;;;;;5055730;28;20473;-81
2023/08/13 08:45:11;;;;;;;12.10;7.77;;;24.00;83.60;;;;;;5025512;28;20957;-82
2023/08/13 08:47:41;;;;;;;10.87;7.80;;;24.00;83.50;;;;;;5027800;28;20923;-83
2023/08/13 08:50:13;;;;;;;9.97;7.37;;;24.10;83.40;;;;;;5028202;28;20451;-82
2023/08/13 08:52:41;;;;;;;10.60;7.60;;;24.10;83.30;;;;;;5021728;28;20972;-82
2023/08/13 08:55:11;;;;;;;9.90;7.37;;;24.10;83.30;;;;;;5025628;28;20521;-80
2023/08/13 08:57:39;;;;;;;12.23;7.23;;;24.10;83.20;;;;;;5026804;28;20495;-79
2023/08/13 09:00:09;;;;;;;12.13;7.70;;;24.10;83.10;;;;;;5029577;28;20459;-80
2023/08/13 09:02:38;;;;;;;8.77;6.50;;;24.20;82.90;;;;;;5026804;28;20474;-81
2023/08/13 09:05:08;;;;;;;9.87;6.37;;;24.20;82.90;;;;;;5026950;28;20456;-81
2023/08/13 09:07:40;;;;;;;8.40;6.10;;;24.20;82.90;;;;;;5028150;28;20459;-81
2023/08/13 09:10:08;;;;;;;8.47;5.17;;;24.30;82.70;;;;;;5020648;28;21005;-81
2023/08/13 09:12:37;;;;;;;9.87;5.80;;;24.30;82.50;;;;;;5029818;28;20440;-81
2023/08/13 09:15:11;;;;;;;10.80;5.93;;;24.30;82.20;;;;;;5020702;28;20467;-80
2023/08/13 09:17:40;;;;;;;8.77;4.93;;;24.40;81.90;;;;;;5022488;28;20462;-80
2023/08/13 09:20:15;;;;;;;6.93;4.10;;;24.40;81.80;;;;;;5023518;28;20528;-80
2023/08/13 09:22:46;;;;;;;11.50;5.57;;;24.40;81.60;;;;;;5051888;28;20497;-81
2023/08/13 09:25:15;;;;;;;9.20;4.80;;;24.40;81.30;;;;;;5022867;28;20514;-82
2023/08/13 09:27:43;;;;;;;6.80;4.53;;;24.50;81.20;;;;;;5021932;28;20460;-82
2023/08/13 09:30:19;;;;;;;10.13;5.00;;;24.50;81.00;;;;;;5021468;28;20521;-80
2023/08/13 09:32:48;;;;;;;8.07;4.93;;;24.50;80.70;;;;;;5016063;28;21398;-80
2023/08/13 09:35:17;;;;;;;8.23;4.57;;;24.60;80.50;;;;;;5016118;28;20455;-80
2023/08/13 09:37:46;;;;;;;9.20;4.20;;;24.60;80.30;;;;;;5015819;28;20491;-81
2023/08/13 09:40:17;;;;;;;7.37;4.27;;;24.60;80.20;;;;;;5049845;28;21096;-81
2023/08/13 09:42:47;;;;;;;8.67;5.30;;;24.70;80.10;;;;;;5022948;28;20494;-81
2023/08/13 09:45:19;;;;;;;9.93;4.87;;;24.70;79.90;;;;;;5019806;28;20542;-81
2023/08/13 09:47:50;;;;;;;7.03;4.33;;;24.70;79.50;;;;;;5019384;28;20823;-81
2023/08/13 09:50:20;;;;;;;8.13;5.20;;;24.70;79.40;;;;;;5023077;28;20467;-83
2023/08/13 09:52:50;;;;;;;8.30;4.60;;;24.80;79.20;;;;;;5018440;28;20539;-83
2023/08/13 09:55:24;;;;;;;9.60;5.20;;;24.80;79.00;;;;;;5021337;28;20487;-82
2023/08/13 09:57:54;;;;;;;9.60;4.43;;;24.80;78.90;;;;;;5021157;28;20455;-83
2023/08/13 10:00:22;;;;;;;8.13;4.30;;;24.80;78.70;;;;;;5017120;28;20459;-82
2023/08/13 10:02:50;;;;;;;9.10;5.20;;;24.90;78.60;;;;;;5022029;28;20479;-82
2023/08/13 10:05:20;;;;;;;8.13;4.70;;;24.90;78.60;;;;;;5046581;28;20452;-82
2023/08/13 10:07:50;;;;;;;8.37;4.80;;;24.90;78.60;;;;;;5019847;28;20464;-82
2023/08/13 10:10:18;;;;;;;9.40;4.33;;;25.00;78.40;;;;;;5023864;28;20542;-81
2023/08/13 10:12:47;;;;;;;7.30;3.90;;;25.00;78.10;;;;;;5018361;28;20598;-82
2023/08/13 10:15:16;;;;;;;9.17;4.00;;;24.90;78.10;;;;;;5019939;28;20570;-82
2023/08/13 10:17:44;;;;;;;8.57;4.27;;;25.00;78.00;;;;;;5017680;28;20539;-82
2023/08/13 10:20:13;;;;;;;7.53;3.97;;;25.00;77.90;;;;;;5019761;28;20464;-82
2023/08/13 10:22:41;;;;;;;6.30;3.80;;;25.00;77.70;;;;;;5012580;28;20491;-81
2023/08/13 10:25:26;;;;;;;8.30;3.50;;;25.10;77.50;;;;;;5017188;28;20807;-82
2023/08/13 10:27:55;;;;;;;7.23;3.30;;;25.10;77.00;;;;;;5019973;28;20538;-82
2023/08/13 10:30:23;;;;;;;9.27;3.70;;;25.10;76.90;;;;;;5014642;28;20463;-83
2023/08/13 10:32:54;;;;;;;8.17;3.33;;;25.20;76.40;;;;;;5023975;28;20517;-81
2023/08/13 10:35:26;;;;;;;5.93;3.10;;;25.20;76.20;;;;;;5022719;28;20463;-82
2023/08/13 10:37:57;;;;;;;6.40;3.30;;;25.10;76.10;;;;;;5024302;28;20452;-83
2023/08/13 10:40:27;;;;;;;5.50;2.70;;;25.10;76.00;;;;;;5022681;28;20479;-81
2023/08/13 10:43:03;;;;;;;5.27;2.97;;;25.20;75.90;;;;;;5020307;28;20514;-81
2023/08/13 10:45:35;;;;;;;5.87;3.03;;;25.20;75.70;;;;;;5019446;28;20536;-82
2023/08/13 10:48:05;;;;;;;6.47;2.80;;;25.20;75.60;;;;;;5015507;28;21065;-82
2023/08/13 10:50:36;;;;;;;8.13;3.50;;;25.20;75.50;;;;;;5021993;28;20459;-83
2023/08/13 10:53:07;;;;;;;5.00;2.70;;;25.20;75.30;;;;;;5023632;28;20567;-82
2023/08/13 10:55:39;;;;;;;7.80;3.30;;;25.20;75.10;;;;;;5016142;28;20977;-81
2023/08/13 10:58:08;;;;;;;5.50;3.00;;;25.20;75.10;;;;;;5045973;28;20515;-81
2023/08/13 11:00:45;;;;;;;7.70;3.50;;;25.30;75.00;;;;;;5041106;28;20811;-82
2023/08/13 11:03:19;;;;;;;6.00;3.10;;;25.30;74.20;;;;;;5042246;28;20525;-82
2023/08/13 11:05:50;;;;;;;6.90;2.70;;;25.30;74.60;;;;;;5041826;28;20472;-81
2023/08/13 11:08:19;;;;;;;7.37;3.30;;;25.40;74.60;;;;;;5020704;28;20463;-81
2023/08/13 11:11:08;;;;;;;6.33;3.70;;;25.40;74.50;;;;;;5025106;28;20455;-81
2023/08/13 11:13:37;;;;;;;5.53;3.03;;;25.50;74.40;;;;;;5019250;28;20470;-82
2023/08/13 11:16:09;;;;;;;6.23;3.13;;;25.50;74.40;;;;;;5023591;28;20564;-81
2023/08/13 11:18:40;;;;;;;5.77;3.10;;;25.50;74.30;;;;;;5025902;28;20447;-82
2023/08/13 11:21:08;;;;;;;5.80;3.10;;;25.60;74.20;;;;;;5022784;28;21058;-82
2023/08/13 11:23:36;;;;;;;5.90;3.07;;;25.60;74.10;;;;;;5020833;28;20508;-82
2023/08/13 11:26:06;;;;;;;6.00;3.43;;;25.60;74.00;;;;;;5025571;28;20462;-84
2023/08/13 11:28:34;;;;;;;8.67;3.27;;;25.70;74.00;;;;;;5023795;28;20971;-82
2023/08/13 11:31:02;;;;;;;8.70;3.30;;;25.70;73.90;;;;;;5024144;28;20465;-84
2023/08/13 11:33:31;;;;;;;8.00;3.80;;;25.70;73.70;;;;;;5026034;28;20467;-85
2023/08/13 11:36:00;;;;;;;6.00;3.20;;;25.70;73.80;;;;;;5027270;28;20454;-84
2023/08/13 11:38:29;;;;;;;6.80;2.83;;;25.70;73.70;;;;;;5027010;28;20451;-83
2023/08/13 11:40:57;;;;;;;5.37;3.07;;;25.70;73.70;;;;;;5022295;28;20472;-84
2023/08/13 11:43:29;;;;;;;8.10;3.43;;;25.80;73.70;;;;;;5038063;28;20470;-82
2023/08/13 11:45:58;;;;;;;7.23;2.83;;;25.80;73.70;;;;;;5025011;28;20787;-80
2023/08/13 11:48:27;;;;;;;6.30;3.03;;;25.80;73.70;;;;;;5024837;28;20529;-82
2023/08/13 11:51:10;;;;;;;5.10;2.83;;;25.90;73.70;;;;;;5029018;28;20509;-80
2023/08/13 11:53:49;;;;;;;5.53;2.83;;;25.90;73.80;;;;;;5028605;28;20468;-79
2023/08/13 11:56:18;;;;;;;5.70;2.60;;;25.90;73.50;;;;;;5024477;28;20507;-81
2023/08/13 11:58:50;;;;;;;5.17;2.70;;;25.90;73.30;;;;;;5022642;28;21300;-81
2023/08/13 12:01:18;;;;;;;6.40;2.70;;;25.90;73.40;;;;;;5019493;28;20460;-81
2023/08/13 12:03:46;;;;;;;6.00;2.73;;;25.90;73.50;;;;;;5024010;28;20487;-79
2023/08/13 12:06:14;;;;;;;6.50;2.57;;;26.00;73.50;;;;;;5025613;28;20463;-83
2023/08/13 12:08:44;;;;;;;6.07;3.10;;;26.00;73.40;;;;;;5020357;28;20474;-81
2023/08/13 12:11:13;;;;;;;5.67;2.77;;;26.10;73.30;;;;;;5027247;28;20451;-80
2023/08/13 12:13:41;;;;;;;7.10;2.90;;;26.10;73.20;;;;;;5028554;28;21021;-81
2023/08/13 12:16:11;;;;;;;5.57;2.30;;;26.10;73.20;;;;;;5021512;28;20732;-79
2023/08/13 12:18:39;;;;;;;9.27;2.60;;;26.10;73.10;;;;;;5019044;28;20843;-81
2023/08/13 12:21:07;;;;;;;5.63;2.90;;;26.10;73.00;;;;;;5022727;28;20488;-82
2023/08/13 12:23:35;;;;;;;5.63;2.40;;;26.10;73.10;;;;;;5022546;28;20566;-81
2023/08/13 12:26:03;;;;;;;4.47;2.00;;;26.10;72.90;;;;;;5027136;28;21176;-80
2023/08/13 12:28:31;;;;;;;7.40;2.30;;;26.10;72.70;;;;;;5023616;28;20459;-82
2023/08/13 12:30:59;;;;;;;5.63;2.27;;;26.10;72.70;;;;;;5024365;28;20455;-81
2023/08/13 12:33:29;;;;;;;4.60;2.13;;;26.10;72.70;;;;;;5024551;28;20448;-79
2023/08/13 12:35:57;;;;;;;5.07;2.27;;;26.10;72.80;;;;;;5019662;28;20463;-80
2023/08/13 12:38:25;;;;;;;5.53;2.80;;;26.10;72.60;;;;;;5022948;28;20840;-81
2023/08/13 12:40:53;;;;;;;6.00;2.40;;;26.10;72.70;;;;;;5024319;28;20503;-80
2023/08/13 12:43:21;;;;;;;9.30;2.90;;;26.10;72.70;;;;;;5024357;28;20973;-81
2023/08/13 12:45:49;;;;;;;7.90;2.13;;;26.10;72.70;;;;;;5021516;28;20460;-79
2023/08/13 12:48:17;;;;;;;6.00;2.50;;;26.10;72.70;;;;;;5019962;28;20465;-80
2023/08/13 12:50:46;;;;;;;5.10;2.17;;;26.10;72.70;;;;;;5021496;28;20476;-81
2023/08/13 12:53:15;;;;;;;5.87;2.87;;;26.20;72.70;;;;;;5025308;28;20470;-81
2023/08/13 12:55:43;;;;;;;6.70;2.50;;;26.20;72.80;;;;;;5018970;28;20463;-81